Mosier, Oregon
Current Conditions -  °F | °C
As of 5:59 AM on Friday 19 Dec 2014 (Local Time) from K4S2 Reporting Station
Moderate Rain Moderate Rain  
Wind Chill: 39°   Ceiling: 3700
Heat Index: 39°   Visibility: 4mi
Dew Point: 37°   Wind: 3mph
Humidity: 93%   Direction: 130°SE
Pressure: 29.93"   Gusts: NA
Location:  45.68°N, 121.4°W
Report Text: K4S2 191359Z AUTO 13003KT 4SM RA SCT025 BKN037 OVC055 04/03 A2993 RMK AO2 P0003 SLP151 T00400030
Loading
Personal Weather Stations






























Interactive Weather Map New forecast layout! Learn more

10-Day Weather Forecast

Advertisements
Track Severe Weather on mobile